createdAt,value
2018-11-21T16:40:40.837Z,6.56
2018-11-21T16:41:39.357Z,6.56
2018-11-21T16:42:38.912Z,6.56
2018-11-21T16:43:36.598Z,6.55
2018-11-21T16:44:35.210Z,6.67
2018-11-21T16:45:33.849Z,6.79
2018-11-21T16:46:32.545Z,6.85
2018-11-21T16:47:31.075Z,6.61
2018-11-21T16:48:29.628Z,6.62
2018-11-21T16:50:37.345Z,6.54
2018-11-21T16:51:35.942Z,6.46
2018-11-21T16:52:34.624Z,6.36
2018-11-21T16:53:35.115Z,6.49
2018-11-21T16:54:31.916Z,6.61
2018-11-21T16:55:30.473Z,6.66
2018-11-21T16:56:28.987Z,6.73
2018-11-21T16:57:27.604Z,6.74
2018-11-21T16:58:26.357Z,6.84
2018-11-21T16:59:24.963Z,6.74
2018-11-21T17:00:23.537Z,6.81
2018-11-21T17:01:22.094Z,6.79
2018-11-21T17:02:20.694Z,6.8
2018-11-21T17:03:19.222Z,6.77
2018-11-21T17:04:17.762Z,6.88
2018-11-21T17:05:16.383Z,6.88
2018-11-21T17:06:14.931Z,6.89
2018-11-21T17:07:13.481Z,6.88
2018-11-21T17:08:12.151Z,6.79
2018-11-21T17:09:10.726Z,6.85
2018-11-21T17:10:09.298Z,6.84
2018-11-21T17:11:08.030Z,6.8
2018-11-21T17:12:06.635Z,6.52
2018-11-21T17:13:05.171Z,6.59
2018-11-21T17:14:03.699Z,6.58
2018-11-21T17:15:02.338Z,6.64
2018-11-21T17:16:00.893Z,6.67
2018-11-21T17:16:59.473Z,6.81
2018-11-21T17:17:58.009Z,6.73
2018-11-21T17:18:56.567Z,6.77
2018-11-21T17:19:55.069Z,6.71
2018-11-21T17:20:53.637Z,6.74
2018-11-21T17:21:52.327Z,6.87
2018-11-21T17:22:50.826Z,6.91
2018-11-21T17:23:49.356Z,6.81
2018-11-21T17:24:48.028Z,6.76
2018-11-21T17:25:47.444Z,6.8
2018-11-21T17:26:45.222Z,6.74
2018-11-21T17:27:43.794Z,6.64
2018-11-21T17:28:42.627Z,6.52
2018-11-21T17:29:53.382Z,6.56
2018-11-21T17:30:39.805Z,6.61
2018-11-21T17:31:38.406Z,6.51
2018-11-21T17:32:36.942Z,6.46
2018-11-21T17:33:35.526Z,6.66
2018-11-21T17:34:34.305Z,6.76
2018-11-21T17:37:14.561Z,6.73
2018-11-21T17:38:13.119Z,6.73
2018-11-21T17:40:53.295Z,6.64
2018-11-21T17:41:51.969Z,6.76
2018-11-21T17:42:50.575Z,6.66
2018-11-21T17:43:49.164Z,6.61
2018-11-21T17:44:47.983Z,6.43
2018-11-21T17:45:46.704Z,6.62
2018-11-21T17:46:45.225Z,6.44
2018-11-21T17:47:43.791Z,6.58
2018-11-21T17:48:42.331Z,6.58
2018-11-21T17:49:41.316Z,6.69
2018-11-21T17:50:39.945Z,6.7
2018-11-21T17:51:38.713Z,6.64
2018-11-21T17:52:37.243Z,6.49
2018-11-21T17:53:36.049Z,6.51
2018-11-21T17:54:34.758Z,6.46
2018-11-21T17:55:33.313Z,6.64
2018-11-21T17:56:32.460Z,6.7
2018-11-21T17:57:31.062Z,6.56
2018-11-21T17:59:53.659Z,6.61
2018-11-21T18:02:34.505Z,6.31
2018-11-21T18:03:33.789Z,6.33
2018-11-21T18:04:32.552Z,6.36
2018-11-21T18:05:31.097Z,6.49
2018-11-21T18:09:10.629Z,6.52
2018-11-21T18:10:09.835Z,6.64
2018-11-21T18:11:08.488Z,6.48
2018-11-21T18:12:08.708Z,6.4
2018-11-21T18:30:47.570Z,6.79
2018-11-21T18:31:47.125Z,6.84
2018-11-21T18:32:45.719Z,6.76
2018-11-21T18:33:44.566Z,6.92
2018-11-21T18:36:07.447Z,6.89
2018-11-21T18:37:06.354Z,6.88
2018-11-21T18:39:46.729Z,7.02
2018-11-21T18:40:45.267Z,6.91
2018-11-21T18:41:43.749Z,6.89
2018-11-21T18:42:42.470Z,6.95
2018-11-21T18:43:41.084Z,7.06
2018-11-21T18:44:39.645Z,6.97
2018-11-21T18:45:38.706Z,7.05
2018-11-21T18:46:37.354Z,6.92
2018-11-21T18:47:35.926Z,7.07
2018-11-21T18:48:34.527Z,7.1
2018-11-21T18:49:33.149Z,7.07
2018-11-21T18:50:31.605Z,7.02
2018-11-21T18:53:11.809Z,6.77
2018-11-21T18:54:10.674Z,6.77
2018-11-21T18:55:09.235Z,6.8
2018-11-21T18:56:07.890Z,6.84
2018-11-21T19:01:32.997Z,6.95
2018-11-21T19:02:31.660Z,6.88
2018-11-21T19:03:30.706Z,6.91
2018-11-21T19:04:29.417Z,6.92
2018-11-21T19:05:28.142Z,6.98
2018-11-21T19:06:27.532Z,6.99
2018-11-21T19:07:26.294Z,6.91
2018-11-21T19:08:25.408Z,7.03
2018-11-21T19:09:24.132Z,6.91
2018-11-21T19:10:22.694Z,6.87
2018-11-21T19:11:21.230Z,6.94
2018-11-21T19:12:20.264Z,6.94
2018-11-21T19:14:37.900Z,7.02
2018-11-21T19:15:36.471Z,7.06
2018-11-21T19:16:35.212Z,7.13
2018-11-21T19:17:34.793Z,7.1
2018-11-21T19:18:33.399Z,7.17
2018-11-21T19:19:32.052Z,7.23
2018-11-21T19:20:30.985Z,6.94
2018-11-21T19:21:29.525Z,7.05
2018-11-21T19:22:28.194Z,7.1
2018-11-21T19:23:27.078Z,6.91
2018-11-21T19:24:25.732Z,6.94
2018-11-21T19:25:24.313Z,6.84
2018-11-21T19:26:23.248Z,6.99
2018-11-21T19:27:22.188Z,6.8
2018-11-21T19:28:21.473Z,6.77
2018-11-21T19:29:20.083Z,6.7
2018-11-21T19:30:18.834Z,6.64
2018-11-21T19:31:17.424Z,6.85
2018-11-21T19:32:15.941Z,6.81
2018-11-21T19:33:14.626Z,6.8
2018-11-21T19:34:13.172Z,7.02
2018-11-21T19:36:13.813Z,7.16
2018-11-21T19:37:12.653Z,7.24
2018-11-21T19:38:11.207Z,7.3
2018-11-21T19:39:09.817Z,7.2
2018-11-21T19:40:08.909Z,7.24
2018-11-21T19:41:07.537Z,7.15
2018-11-21T19:42:06.102Z,7.16
2018-11-21T19:43:04.589Z,7.2
2018-11-21T19:44:03.190Z,7.2
2018-11-21T19:45:01.784Z,7.12
2018-11-21T19:46:00.436Z,6.94
2018-11-21T19:46:59.052Z,7.05
2018-11-21T19:47:57.608Z,7.1
2018-11-21T19:48:56.399Z,6.81
2018-11-21T19:49:54.982Z,6.77
2018-11-21T19:50:53.628Z,6.76
2018-11-21T19:51:52.235Z,6.88
2018-11-21T19:52:50.763Z,6.97
2018-11-21T19:53:49.285Z,7.1
2018-11-21T19:57:28.552Z,7.02
2018-11-21T19:58:27.096Z,7.05
2018-11-21T19:59:25.981Z,7.07
2018-11-21T20:00:24.884Z,6.97
2018-11-21T20:01:23.429Z,7.12
2018-11-21T20:02:22.158Z,7.16
2018-11-21T20:03:20.735Z,7.24
2018-11-21T20:04:19.468Z,7.25
2018-11-21T20:05:18.234Z,7.06
2018-11-21T20:06:16.911Z,7.13
2018-11-21T20:08:57.107Z,7.06
2018-11-21T20:09:55.911Z,6.84
2018-11-21T20:10:54.533Z,6.66
2018-11-21T20:11:53.101Z,6.67
2018-11-21T20:12:51.672Z,6.84
2018-11-21T20:13:50.443Z,6.77
2018-11-21T20:14:48.948Z,6.79
2018-11-21T20:15:47.811Z,6.87
2018-11-21T20:16:46.238Z,6.81
2018-11-21T20:17:44.865Z,7.05
2018-11-21T20:20:25.086Z,6.97
2018-11-21T20:21:23.595Z,6.92
2018-11-21T20:22:22.320Z,6.91
2018-11-21T20:23:20.831Z,6.74
2018-11-21T20:24:19.360Z,6.89
2018-11-21T20:25:18.032Z,6.95
2018-11-21T20:27:58.788Z,7.1
2018-11-21T20:28:57.502Z,7.09
2018-11-21T20:29:56.312Z,7.06
2018-11-21T20:30:54.853Z,7.09
2018-11-21T20:31:53.607Z,6.98
2018-11-21T20:32:52.357Z,7.12
2018-11-21T20:33:50.920Z,7.05
2018-11-21T20:34:49.513Z,7.16
2018-11-21T20:35:48.172Z,7.2
2018-11-21T20:36:46.754Z,7.17
2018-11-21T20:37:45.287Z,6.99
2018-11-21T20:38:43.939Z,7.07
2018-11-21T20:41:24.241Z,7.03
2018-11-21T20:42:22.844Z,6.77
2018-11-21T20:43:21.379Z,6.67
2018-11-21T20:44:20.159Z,6.67
2018-11-21T20:45:18.799Z,6.73
2018-11-21T20:46:17.402Z,6.76
2018-11-21T20:48:38.608Z,6.87
2018-11-21T20:49:37.151Z,7.02
2018-11-21T20:50:35.678Z,7.06
2018-11-21T20:51:35.261Z,6.97
2018-11-21T20:52:33.152Z,6.99
2018-11-21T20:56:12.019Z,7.02
2018-11-21T20:57:10.794Z,6.94
2018-11-21T20:58:09.316Z,7.09
2018-11-21T20:59:07.895Z,7.09
2018-11-21T21:00:06.438Z,7.06
2018-11-21T21:01:04.931Z,7.09
2018-11-21T21:02:03.470Z,6.94
2018-11-21T21:03:02.008Z,6.94
2018-11-21T21:04:00.546Z,7.03
2018-11-21T21:06:40.694Z,7.03
2018-11-21T21:07:39.201Z,6.98
2018-11-21T21:08:37.829Z,6.98
2018-11-21T21:09:36.581Z,6.94
2018-11-21T21:10:35.126Z,6.81
2018-11-21T21:11:33.650Z,6.85
2018-11-21T21:14:13.842Z,6.95
2018-11-21T21:15:12.360Z,6.97
2018-11-21T21:17:34.998Z,7.03
2018-11-21T21:19:16.848Z,7.15
2018-11-21T21:20:14.543Z,7.09
2018-11-21T21:21:15.634Z,7.15
2018-11-21T21:22:12.675Z,7.17
2018-11-21T21:23:10.350Z,6.98
2018-11-21T21:24:08.925Z,7.02
2018-11-21T21:25:07.429Z,7.09
2018-11-21T21:26:05.927Z,7.23
2018-11-21T21:27:04.720Z,7.12
2018-11-21T21:28:03.244Z,7.17
2018-11-21T21:29:01.919Z,7.15
2018-11-21T21:30:00.589Z,7.12
2018-11-21T21:30:59.099Z,7.05
2018-11-21T21:31:57.788Z,6.99
2018-11-21T21:33:54.898Z,7.13
2018-11-21T21:34:53.430Z,7.02
2018-11-21T21:35:52.030Z,7.05
2018-11-21T21:36:50.580Z,7.12
2018-11-21T21:37:49.127Z,6.76
2018-11-21T21:40:29.209Z,6.89
2018-11-21T21:41:27.758Z,6.97
2018-11-21T21:42:26.427Z,6.97
2018-11-21T21:43:24.931Z,6.84
2018-11-21T21:44:23.529Z,6.81
2018-11-21T21:45:22.418Z,6.99
2018-11-21T21:46:20.973Z,7.12
2018-11-21T21:47:19.483Z,7.09
2018-11-21T21:48:18.103Z,7.2
2018-11-21T21:49:16.717Z,7.12
2018-11-21T21:50:15.245Z,7.07
2018-11-21T21:51:13.779Z,7.15
2018-11-21T21:52:12.275Z,7.05
2018-11-21T21:53:10.809Z,6.92
2018-11-21T21:54:09.337Z,7.06
2018-11-21T21:55:07.869Z,7.13
2018-11-21T21:56:06.396Z,7.23
2018-11-21T21:57:04.904Z,7.13
2018-11-21T21:58:03.438Z,7.2
2018-11-21T21:59:01.946Z,7.25
2018-11-21T22:00:00.483Z,7.15
2018-11-21T22:00:59.026Z,7.2
2018-11-21T22:01:57.614Z,7.1
2018-11-21T22:02:56.314Z,7.16
2018-11-21T22:03:54.811Z,7.17
2018-11-21T22:04:53.379Z,7.12
2018-11-21T22:05:51.941Z,7.1
2018-11-21T22:09:13.655Z,6.97
2018-11-21T22:10:12.169Z,6.87
2018-11-21T22:11:10.910Z,7.12
2018-11-21T22:12:09.197Z,7.02
2018-11-21T22:13:07.762Z,7.02
2018-11-21T22:14:06.405Z,7.17
2018-11-21T22:15:05.067Z,7.17
2018-11-21T22:16:03.581Z,7.23
2018-11-21T22:17:02.292Z,7.1
2018-11-21T22:18:00.838Z,6.94
2018-11-21T22:18:59.383Z,6.95
2018-11-21T22:19:58.019Z,6.8
2018-11-21T22:20:56.598Z,6.76
2018-11-21T22:21:55.196Z,6.67
2018-11-21T22:22:53.727Z,6.64
2018-11-21T22:23:52.279Z,6.74
2018-11-21T22:26:32.490Z,6.92
2018-11-21T22:27:31.035Z,7.02
2018-11-21T22:28:29.568Z,6.99
2018-11-21T22:29:28.158Z,6.99
2018-11-21T22:30:26.846Z,6.92
2018-11-21T22:31:25.406Z,7.03
2018-11-21T22:32:23.957Z,6.98
2018-11-21T22:33:22.605Z,6.97
2018-11-21T22:34:24.449Z,7.07
2018-11-21T22:35:24.876Z,7.2
2018-11-21T22:36:18.230Z,7.23
2018-11-21T22:37:16.806Z,7.16
2018-11-21T22:38:15.340Z,6.91
2018-11-21T22:39:13.849Z,6.92
2018-11-21T22:40:12.372Z,6.91
2018-11-21T22:41:10.910Z,7.09
2018-11-21T22:42:09.435Z,7.13
2018-11-21T22:43:07.986Z,7.12
2018-11-21T22:44:06.510Z,6.92
2018-11-21T22:45:05.063Z,6.8
2018-11-21T22:46:03.573Z,6.77
2018-11-21T22:47:02.121Z,7.02
2018-11-21T22:48:00.638Z,6.95
2018-11-21T22:48:59.294Z,6.99
2018-11-21T22:49:57.862Z,7.03
2018-11-21T22:50:56.472Z,7.09
2018-11-21T22:51:55.022Z,6.99
2018-11-21T22:52:53.537Z,7.03
2018-11-21T22:53:52.182Z,7.09
2018-11-21T22:54:50.832Z,7.12
2018-11-21T22:55:49.346Z,7.1
2018-11-21T22:56:47.906Z,7.1
2018-11-21T22:57:46.636Z,7.24
2018-11-21T22:58:45.151Z,7.24
2018-11-21T22:59:43.694Z,7.23
2018-11-21T23:00:42.249Z,7.15
2018-11-21T23:01:40.788Z,7.2
2018-11-21T23:02:39.347Z,7.12
2018-11-21T23:03:37.887Z,7.05
2018-11-21T23:04:36.412Z,6.94
2018-11-21T23:05:37.669Z,6.95
2018-11-21T23:06:33.512Z,6.91
2018-11-21T23:07:32.037Z,6.94
2018-11-21T23:08:30.649Z,6.74
2018-11-21T23:09:29.172Z,6.77
2018-11-21T23:12:09.336Z,6.79
2018-11-21T23:13:08.051Z,6.88
2018-11-21T23:14:06.694Z,6.92
2018-11-21T23:15:05.230Z,7.05
2018-11-21T23:16:03.761Z,7.07
2018-11-21T23:17:02.323Z,7.17
2018-11-21T23:18:00.928Z,7.1
2018-11-21T23:18:59.435Z,7.24
2018-11-21T23:19:57.932Z,7.21
2018-11-21T23:20:56.482Z,7.12
2018-11-21T23:21:55.011Z,7.15
2018-11-21T23:22:53.568Z,7.15
2018-11-21T23:23:52.062Z,7.16
2018-11-21T23:24:50.607Z,7.12
2018-11-21T23:25:49.146Z,7.17
2018-11-21T23:26:47.727Z,7.35
2018-11-21T23:27:46.271Z,7.3
2018-11-21T23:30:26.702Z,7.31
2018-11-21T23:33:18.721Z,7.34
2018-11-21T23:34:17.282Z,7.31
2018-11-21T23:35:15.799Z,7.34
2018-11-21T23:36:14.318Z,7.3
2018-11-21T23:37:12.885Z,7.28
2018-11-21T23:38:11.397Z,7.25
2018-11-21T23:39:09.962Z,7.13
2018-11-21T23:40:08.649Z,7.2
2018-11-21T23:41:07.173Z,7.17
2018-11-21T23:42:05.691Z,7.23
2018-11-21T23:43:04.244Z,7.21
2018-11-21T23:44:02.871Z,7.21
2018-11-21T23:45:01.391Z,7.15
2018-11-21T23:46:00.167Z,7.24
2018-11-21T23:46:58.739Z,7.02
2018-11-21T23:47:57.266Z,7.03
2018-11-21T23:48:55.835Z,7.02
2018-11-21T23:49:54.395Z,6.88
2018-11-21T23:50:52.960Z,6.8
2018-11-21T23:51:51.463Z,6.74
2018-11-21T23:53:51.038Z,6.74
2018-11-21T23:54:49.543Z,6.62
2018-11-21T23:55:48.159Z,6.49
2018-11-21T23:57:06.766Z,6.41
2018-11-21T23:57:45.250Z,6.3
2018-11-21T23:58:43.860Z,6.36
2018-11-21T23:59:42.562Z,6.31
